createdAt,value
2023-04-17T00:01:00.900Z,3.97
2023-04-17T00:03:27.993Z,3.95
2023-04-17T00:05:56.886Z,4.35
2023-04-17T00:08:26.813Z,4.10
2023-04-17T00:11:04.067Z,4.55
2023-04-17T00:13:34.565Z,4.18
2023-04-17T00:16:01.354Z,4.07
2023-04-17T00:18:28.318Z,4.18
2023-04-17T00:20:57.097Z,4.47
2023-04-17T00:23:34.466Z,4.10
2023-04-17T00:26:01.347Z,4.38
2023-04-17T00:28:28.104Z,3.75
2023-04-17T00:30:55.202Z,4.22
2023-04-17T00:33:22.266Z,4.85
2023-04-17T00:35:49.069Z,4.35
2023-04-17T00:38:16.006Z,4.45
2023-04-17T00:40:45.503Z,4.38
2023-04-17T00:43:12.596Z,3.78
2023-04-17T00:45:39.752Z,4.10
2023-04-17T00:48:07.858Z,4.57
2023-04-17T00:50:36.062Z,4.18
2023-04-17T00:53:03.279Z,4.43
2023-04-17T00:55:31.301Z,4.80
2023-04-17T00:58:00.387Z,3.92
2023-04-17T01:00:27.953Z,4.47
2023-04-17T01:02:58.071Z,4.07
2023-04-17T01:05:29.205Z,3.90
2023-04-17T01:07:57.653Z,4.30
2023-04-17T01:10:24.350Z,4.22
2023-04-17T01:13:11.607Z,4.20
2023-04-17T01:15:38.543Z,4.35
2023-04-17T01:18:06.859Z,4.53
2023-04-17T01:20:34.297Z,4.30
2023-04-17T01:23:02.122Z,4.00
2023-04-17T01:25:29.380Z,4.32
2023-04-17T01:27:57.196Z,3.92
2023-04-17T01:30:24.540Z,4.20
2023-04-17T01:32:54.125Z,4.78
2023-04-17T01:35:21.401Z,3.67
2023-04-17T01:37:48.604Z,4.50
2023-04-17T01:40:15.961Z,4.25
2023-04-17T01:42:43.569Z,4.32
2023-04-17T01:45:10.677Z,4.20
2023-04-17T01:47:37.743Z,3.97
2023-04-17T01:50:05.234Z,4.68
2023-04-17T01:52:32.236Z,4.55
2023-04-17T01:54:59.036Z,4.22
2023-04-17T01:57:25.978Z,4.45
2023-04-17T01:59:52.914Z,4.38
2023-04-17T02:02:19.953Z,4.85
2023-04-17T02:04:47.217Z,4.25
2023-04-17T02:07:14.014Z,4.30
2023-04-17T02:09:40.955Z,4.72
2023-04-17T02:12:07.959Z,4.30
2023-04-17T02:14:34.726Z,4.45
2023-04-17T02:17:04.673Z,4.20
2023-04-17T02:19:31.613Z,4.45
2023-04-17T02:21:58.388Z,4.13
2023-04-17T02:24:25.106Z,3.72
2023-04-17T02:26:52.168Z,4.57
2023-04-17T02:29:19.157Z,4.38
2023-04-17T02:31:47.064Z,4.40
2023-04-17T02:34:19.344Z,4.53
2023-04-17T02:36:46.468Z,4.38
2023-04-17T02:39:13.753Z,4.43
2023-04-17T02:41:41.031Z,3.92
2023-04-17T02:44:08.557Z,5.35
2023-04-17T02:46:35.488Z,4.50
2023-04-17T02:49:02.493Z,4.65
2023-04-17T02:51:29.474Z,4.00
2023-04-17T02:53:56.201Z,4.32
2023-04-17T02:56:23.071Z,6.35
2023-04-17T02:58:50.060Z,4.53
2023-04-17T03:01:17.291Z,4.22
2023-04-17T03:03:45.408Z,4.55
2023-04-17T03:06:12.897Z,4.20
2023-04-17T03:08:39.740Z,4.10
2023-04-17T03:11:07.331Z,4.10
2023-04-17T03:13:38.195Z,4.15
2023-04-17T03:16:06.096Z,4.18
2023-04-17T03:18:32.934Z,3.92
2023-04-17T03:20:59.695Z,4.93
2023-04-17T03:23:26.467Z,4.50
2023-04-17T03:25:53.485Z,4.05
2023-04-17T03:28:22.065Z,5.03
2023-04-17T03:30:49.489Z,4.78
2023-04-17T03:33:18.932Z,4.60
2023-04-17T03:35:46.686Z,4.00
2023-04-17T03:38:13.421Z,4.60
2023-04-17T03:40:40.161Z,4.63
2023-04-17T03:43:06.992Z,4.82
2023-04-17T03:45:33.820Z,4.85
2023-04-17T03:48:01.203Z,4.40
2023-04-17T03:50:28.090Z,4.50
2023-04-17T03:52:55.036Z,5.32
2023-04-17T03:55:21.926Z,5.53
2023-04-17T03:57:51.108Z,5.53
2023-04-17T04:00:18.210Z,4.97
2023-04-17T04:02:45.005Z,4.57
2023-04-17T04:05:11.825Z,4.20
2023-04-17T04:07:38.637Z,4.70
2023-04-17T04:10:05.956Z,6.65
2023-04-17T04:12:32.681Z,6.40
2023-04-17T04:14:59.388Z,5.57
2023-04-17T04:17:26.358Z,4.93
2023-04-17T04:19:53.459Z,4.75
2023-04-17T04:22:21.306Z,6.35
2023-04-17T04:24:47.967Z,4.15
2023-04-17T04:27:18.209Z,5.85
2023-04-17T04:29:45.819Z,4.72
2023-04-17T04:32:13.697Z,4.25
2023-04-17T04:34:42.196Z,5.22
2023-04-17T04:37:09.413Z,4.95
2023-04-17T04:39:38.123Z,4.53
2023-04-17T04:42:05.913Z,4.65
2023-04-17T04:44:32.728Z,5.47
2023-04-17T04:46:59.698Z,5.13
2023-04-17T04:49:26.525Z,5.07
2023-04-17T04:51:53.487Z,4.95
2023-04-17T04:54:20.648Z,4.70
2023-04-17T04:56:47.312Z,4.30
2023-04-17T04:59:14.086Z,4.68
2023-04-17T05:01:40.900Z,4.55
2023-04-17T05:04:08.048Z,4.55
2023-04-17T05:06:35.047Z,4.82
2023-04-17T05:09:01.785Z,5.38
2023-04-17T05:11:28.437Z,5.32
2023-04-17T05:13:55.096Z,5.05
2023-04-17T05:16:22.048Z,5.70
2023-04-17T05:18:49.314Z,4.75
2023-04-17T05:21:16.000Z,4.60
2023-04-17T05:23:42.670Z,4.38
2023-04-17T05:26:09.506Z,4.43
2023-04-17T05:28:36.203Z,4.60
2023-04-17T05:31:03.082Z,4.85
2023-04-17T05:33:29.769Z,5.07
2023-04-17T05:35:56.565Z,4.32
2023-04-17T05:38:23.489Z,4.55
2023-04-17T05:40:50.400Z,4.78
2023-04-17T05:43:17.079Z,5.35
2023-04-17T05:45:44.988Z,4.03
2023-04-17T05:48:11.870Z,5.13
2023-04-17T05:50:38.946Z,4.13
2023-04-17T05:53:06.183Z,3.80
2023-04-17T05:55:32.933Z,4.35
2023-04-17T05:58:01.225Z,3.72
2023-04-17T06:00:32.874Z,3.92
2023-04-17T06:03:01.632Z,3.90
2023-04-17T06:05:29.078Z,3.97
2023-04-17T06:07:56.149Z,4.72
2023-04-17T06:10:22.961Z,5.55
2023-04-17T06:12:49.793Z,4.93
2023-04-17T06:15:16.668Z,4.70
2023-04-17T06:17:44.220Z,4.47
2023-04-17T06:20:11.449Z,4.35
2023-04-17T06:22:39.316Z,3.60
2023-04-17T06:25:07.595Z,4.03
2023-04-17T06:27:36.528Z,3.30
2023-04-17T06:30:06.313Z,4.20
2023-04-17T06:32:33.062Z,3.95
2023-04-17T06:34:59.905Z,3.58
2023-04-17T06:37:26.727Z,4.15
2023-04-17T06:39:53.446Z,3.30
2023-04-17T06:42:20.663Z,3.15
2023-04-17T06:44:47.361Z,3.80
2023-04-17T06:47:14.140Z,2.90
2023-04-17T06:49:40.909Z,3.10
2023-04-17T06:52:07.851Z,3.15
2023-04-17T06:54:34.712Z,3.17
2023-04-17T06:57:01.924Z,3.00
2023-04-17T06:59:28.655Z,3.05
2023-04-17T07:02:05.543Z,2.95
2023-04-17T07:04:32.460Z,3.17
2023-04-17T07:06:59.381Z,3.33
2023-04-17T07:09:34.374Z,3.00
2023-04-17T07:14:27.744Z,3.30
2023-04-17T07:16:54.820Z,3.03
2023-04-17T07:19:21.858Z,3.00
2023-04-17T07:21:48.844Z,2.63
2023-04-17T07:24:15.884Z,2.65
2023-04-17T07:26:43.542Z,2.90
2023-04-17T07:29:10.819Z,2.80
2023-04-17T07:31:38.680Z,2.78
2023-04-17T07:34:05.404Z,3.97
2023-04-17T07:36:32.430Z,2.70
2023-04-17T07:38:59.165Z,2.38
2023-04-17T07:41:25.991Z,2.78
2023-04-17T07:43:52.827Z,2.72
2023-04-17T07:46:19.830Z,2.55
2023-04-17T07:48:46.952Z,2.25
2023-04-17T07:51:13.741Z,2.78
2023-04-17T07:53:40.789Z,2.70
2023-04-17T07:56:07.818Z,3.30
2023-04-17T07:58:35.933Z,3.03
2023-04-17T08:01:05.632Z,2.63
2023-04-17T08:03:32.611Z,2.90
2023-04-17T08:05:59.716Z,2.60
2023-04-17T08:08:26.573Z,3.60
2023-04-17T08:10:53.347Z,2.85
2023-04-17T08:13:20.072Z,3.22
2023-04-17T08:15:47.470Z,3.17
2023-04-17T08:18:14.266Z,2.78
2023-04-17T08:20:40.985Z,2.90
2023-04-17T08:23:07.965Z,2.60
2023-04-17T08:25:34.812Z,2.80
2023-04-17T08:28:01.574Z,3.83
2023-04-17T08:30:28.131Z,3.13
2023-04-17T08:32:55.744Z,3.00
2023-04-17T08:35:22.929Z,2.83
2023-04-17T08:37:49.705Z,3.25
2023-04-17T08:40:18.754Z,3.00
2023-04-17T08:42:48.087Z,2.90
2023-04-17T08:45:15.123Z,2.90
2023-04-17T08:47:43.326Z,2.95
2023-04-17T08:50:12.547Z,3.00
2023-04-17T08:52:50.352Z,2.95
2023-04-17T08:55:20.575Z,3.15
2023-04-17T08:58:02.201Z,2.85
2023-04-17T09:00:36.356Z,2.72
2023-04-17T09:03:05.807Z,2.70
2023-04-17T09:05:39.122Z,2.83
2023-04-17T09:08:16.771Z,2.88
2023-04-17T09:10:53.672Z,2.80
2023-04-17T09:13:25.397Z,2.83
2023-04-17T09:16:07.436Z,2.70
2023-04-17T09:18:35.577Z,2.28
2023-04-17T09:21:03.915Z,2.90
2023-04-17T09:23:32.654Z,2.70
2023-04-17T09:26:11.649Z,3.03
2023-04-17T09:28:43.707Z,3.10
2023-04-17T09:31:19.661Z,3.10
2023-04-17T09:34:07.512Z,2.45
2023-04-17T09:36:39.652Z,2.60
2023-04-17T09:39:18.217Z,3.38
2023-04-17T09:41:45.119Z,3.00
2023-04-17T09:44:12.657Z,2.92
2023-04-17T09:46:47.776Z,2.22
2023-04-17T09:51:46.893Z,2.50
2023-04-17T09:54:15.154Z,2.80
2023-04-17T09:56:42.709Z,2.50
2023-04-17T09:59:10.084Z,3.22
2023-04-17T10:01:38.111Z,3.05
2023-04-17T10:04:05.582Z,2.40
2023-04-17T10:06:34.025Z,3.38
2023-04-17T10:09:01.275Z,2.38
2023-04-17T10:11:32.190Z,2.78
2023-04-17T10:14:10.391Z,1.95
2023-04-17T10:16:39.503Z,2.50
2023-04-17T10:19:27.833Z,2.13
2023-04-17T10:22:16.576Z,2.60
2023-04-17T10:24:43.777Z,2.10
2023-04-17T10:27:28.461Z,2.10
2023-04-17T10:30:00.009Z,2.13
2023-04-17T10:32:31.072Z,2.25
2023-04-17T10:35:20.839Z,2.63
2023-04-17T10:37:47.485Z,2.58
2023-04-17T10:40:24.767Z,2.33
2023-04-17T10:43:20.193Z,2.30
2023-04-17T10:46:12.866Z,2.20
2023-04-17T10:48:52.584Z,2.20
2023-04-17T10:51:23.665Z,2.20
2023-04-17T10:54:02.951Z,2.95
2023-04-17T10:56:38.759Z,2.30
2023-04-17T10:59:10.404Z,2.83
2023-04-17T11:01:37.246Z,2.30
2023-04-17T11:04:04.890Z,2.80
2023-04-17T11:06:33.157Z,2.17
2023-04-17T11:09:00.462Z,1.67
2023-04-17T11:11:40.512Z,2.08
2023-04-17T11:14:14.682Z,1.92
2023-04-17T11:16:43.314Z,2.63
2023-04-17T11:19:12.022Z,2.17
2023-04-17T11:21:40.522Z,2.85
2023-04-17T11:24:07.314Z,2.05
2023-04-17T11:26:43.051Z,2.25
2023-04-17T11:29:17.187Z,2.30
2023-04-17T11:31:45.216Z,2.85
2023-04-17T11:34:12.935Z,2.70
2023-04-17T11:36:39.596Z,2.28
2023-04-17T11:39:08.291Z,2.58
2023-04-17T11:41:39.158Z,2.53
2023-04-17T11:44:24.811Z,2.20
2023-04-17T11:46:52.338Z,1.92
2023-04-17T11:49:33.764Z,2.40
2023-04-17T11:52:02.180Z,2.63
2023-04-17T11:54:37.483Z,3.03
2023-04-17T11:57:13.159Z,2.88
2023-04-17T11:59:46.105Z,2.28
2023-04-17T12:02:13.133Z,2.22
2023-04-17T12:04:40.602Z,2.17
2023-04-17T12:07:09.006Z,2.15
2023-04-17T12:09:36.489Z,2.50
2023-04-17T12:12:08.038Z,2.40
2023-04-17T12:14:35.252Z,4.32
2023-04-17T12:17:01.867Z,2.72
2023-04-17T12:19:29.729Z,2.75
2023-04-17T12:21:56.856Z,2.30
2023-04-17T12:24:25.184Z,2.45
2023-04-17T12:26:53.348Z,2.33
2023-04-17T12:29:29.378Z,2.13
2023-04-17T12:32:00.042Z,2.22
2023-04-17T12:34:27.948Z,2.33
2023-04-17T12:36:55.196Z,2.42
2023-04-17T12:39:21.820Z,2.47
2023-04-17T12:41:48.508Z,2.42
2023-04-17T12:44:15.421Z,3.33
2023-04-17T12:46:42.392Z,2.70
2023-04-17T12:49:09.069Z,2.70
2023-04-17T12:51:38.165Z,3.45
2023-04-17T12:54:05.324Z,2.80
2023-04-17T12:56:32.343Z,2.55
2023-04-17T12:59:02.111Z,2.83
2023-04-17T13:01:29.961Z,4.30
2023-04-17T13:03:58.778Z,2.95
2023-04-17T13:06:25.687Z,2.17
2023-04-17T13:08:52.471Z,2.83
2023-04-17T13:11:19.388Z,2.72
2023-04-17T13:13:46.759Z,2.22
2023-04-17T13:16:19.906Z,3.05
2023-04-17T13:18:46.700Z,2.50
2023-04-17T13:21:13.276Z,2.42
2023-04-17T13:23:40.074Z,2.70
2023-04-17T13:26:06.756Z,2.38
2023-04-17T13:28:33.337Z,2.15
2023-04-17T13:31:00.016Z,2.95
2023-04-17T13:33:26.689Z,2.80
2023-04-17T13:35:54.060Z,2.08
2023-04-17T13:38:20.839Z,2.13
2023-04-17T13:40:47.521Z,2.70
2023-04-17T13:43:14.245Z,2.67
2023-04-17T13:45:49.556Z,2.50
2023-04-17T13:48:16.343Z,2.72
2023-04-17T13:50:43.099Z,2.42
2023-04-17T13:53:11.204Z,2.70
2023-04-17T13:55:38.071Z,2.40
2023-04-17T13:58:04.851Z,2.63
2023-04-17T14:00:31.863Z,2.70
2023-04-17T14:03:00.342Z,2.80
2023-04-17T14:05:27.292Z,2.30
2023-04-17T14:07:53.970Z,2.47
2023-04-17T14:10:20.832Z,2.13
2023-04-17T14:12:47.649Z,2.25
2023-04-17T14:15:19.739Z,3.00
2023-04-17T14:17:46.774Z,2.97
2023-04-17T14:20:15.202Z,3.92
2023-04-17T14:22:41.973Z,2.30
2023-04-17T14:25:09.124Z,2.60
2023-04-17T14:27:36.477Z,2.80
2023-04-17T14:30:04.566Z,2.50
2023-04-17T14:32:31.531Z,2.75
2023-04-17T14:34:58.289Z,3.10
2023-04-17T14:37:25.039Z,2.88
2023-04-17T14:39:51.743Z,3.05
2023-04-17T14:42:18.436Z,2.80
2023-04-17T14:44:45.598Z,2.28
2023-04-17T14:47:13.154Z,2.40
2023-04-17T14:49:39.893Z,2.20
2023-04-17T14:52:06.941Z,2.47
2023-04-17T14:54:33.850Z,2.97
2023-04-17T14:57:01.702Z,2.25
2023-04-17T14:59:28.755Z,2.70
2023-04-17T15:01:56.090Z,2.83
2023-04-17T15:04:25.448Z,2.70
2023-04-17T15:06:52.093Z,3.30
2023-04-17T15:09:18.677Z,2.60
2023-04-17T15:11:46.921Z,2.72
2023-04-17T15:14:13.659Z,2.88
2023-04-17T15:16:40.341Z,3.17
2023-04-17T15:19:07.031Z,2.97
2023-04-17T15:21:33.720Z,2.55
2023-04-17T15:24:00.631Z,2.30
2023-04-17T15:26:27.504Z,2.33
2023-04-17T15:28:54.151Z,2.42
2023-04-17T15:31:20.970Z,2.50
2023-04-17T15:33:47.699Z,2.65
2023-04-17T15:36:14.400Z,2.40
2023-04-17T15:38:41.147Z,2.78
2023-04-17T15:41:10.050Z,2.92
2023-04-17T15:43:40.117Z,2.83
2023-04-17T15:46:07.485Z,2.67
2023-04-17T15:48:34.246Z,2.53
2023-04-17T15:51:02.780Z,2.75
2023-04-17T15:53:29.658Z,2.90
2023-04-17T15:55:56.511Z,2.88
2023-04-17T15:58:23.501Z,2.60
2023-04-17T16:00:50.221Z,2.97
2023-04-17T16:03:17.152Z,2.17
2023-04-17T16:05:44.153Z,2.63
2023-04-17T16:08:10.943Z,3.08
2023-04-17T16:10:37.666Z,2.40
2023-04-17T16:13:04.325Z,2.45
2023-04-17T16:15:31.042Z,2.40
2023-04-17T16:17:57.784Z,2.42
2023-04-17T16:20:24.550Z,2.58
2023-04-17T16:22:51.168Z,2.75
2023-04-17T16:25:19.061Z,2.60
2023-04-17T16:27:47.482Z,3.15
2023-04-17T16:30:14.176Z,2.50
2023-04-17T16:32:40.980Z,2.45
2023-04-17T16:35:08.019Z,2.83
2023-04-17T16:37:34.859Z,2.85
2023-04-17T16:40:04.820Z,2.45
2023-04-17T16:42:32.375Z,2.67
2023-04-17T16:44:59.219Z,2.60
2023-04-17T16:47:26.145Z,2.40
2023-04-17T16:49:53.009Z,2.60
2023-04-17T16:52:19.793Z,2.40
2023-04-17T16:54:46.878Z,2.53
2023-04-17T16:57:13.750Z,2.35
2023-04-17T16:59:40.549Z,2.45
2023-04-17T17:02:07.698Z,2.60
2023-04-17T17:04:34.860Z,2.67
2023-04-17T17:07:01.854Z,2.42
2023-04-17T17:09:28.740Z,2.05
2023-04-17T17:11:56.853Z,2.28
2023-04-17T17:14:23.825Z,2.53
2023-04-17T17:16:50.915Z,2.50
2023-04-17T17:19:17.715Z,2.40
2023-04-17T17:21:44.517Z,2.50
2023-04-17T17:24:11.325Z,2.65
2023-04-17T17:26:38.465Z,2.88
2023-04-17T17:29:05.259Z,2.30
2023-04-17T17:31:34.124Z,2.78
2023-04-17T17:34:11.949Z,2.20
2023-04-17T17:36:47.828Z,2.40
2023-04-17T17:39:14.805Z,2.70
2023-04-17T17:41:41.881Z,2.65
2023-04-17T17:44:08.617Z,2.30
2023-04-17T17:46:36.008Z,2.50
2023-04-17T17:49:02.981Z,2.33
2023-04-17T17:51:29.829Z,2.13
2023-04-17T17:53:56.985Z,2.35
2023-04-17T17:56:24.009Z,2.45
2023-04-17T17:58:51.333Z,2.50
2023-04-17T18:01:18.228Z,2.80
2023-04-17T18:03:47.207Z,2.80
2023-04-17T18:06:15.602Z,2.40
2023-04-17T18:08:42.552Z,2.80
2023-04-17T18:11:09.738Z,2.50
2023-04-17T18:13:36.561Z,2.20
2023-04-17T18:16:04.260Z,2.42
2023-04-17T18:18:31.210Z,2.90
2023-04-17T18:20:57.943Z,2.58
2023-04-17T18:23:24.895Z,3.00
2023-04-17T18:25:59.211Z,2.17
2023-04-17T18:28:26.753Z,2.60
2023-04-17T18:30:53.715Z,3.25
2023-04-17T18:33:20.948Z,3.42
2023-04-17T18:35:47.867Z,2.45
2023-04-17T18:38:15.108Z,2.88
2023-04-17T18:40:41.921Z,2.50
2023-04-17T18:43:10.130Z,2.30
2023-04-17T18:45:37.090Z,2.38
2023-04-17T18:48:04.282Z,3.13
2023-04-17T18:50:31.255Z,2.55
2023-04-17T18:52:57.915Z,2.65
2023-04-17T18:55:24.862Z,2.30
2023-04-17T18:57:51.813Z,2.20
2023-04-17T19:00:18.636Z,2.50
2023-04-17T19:02:45.909Z,2.53
2023-04-17T19:05:13.101Z,2.05
2023-04-17T19:07:40.013Z,3.08
2023-04-17T19:10:07.640Z,2.10
2023-04-17T19:12:36.331Z,1.92
2023-04-17T19:15:04.003Z,2.00
2023-04-17T19:17:30.828Z,3.35
2023-04-17T19:19:57.779Z,3.17
2023-04-17T19:22:24.712Z,1.75
2023-04-17T19:24:53.063Z,3.08
2023-04-17T19:27:20.628Z,2.28
2023-04-17T19:29:47.588Z,2.00
2023-04-17T19:32:16.813Z,2.70
2023-04-17T19:34:44.525Z,1.80
2023-04-17T19:37:11.490Z,2.03
2023-04-17T19:39:38.330Z,1.83
2023-04-17T19:42:05.687Z,2.13
2023-04-17T19:44:32.592Z,2.10
2023-04-17T19:46:59.682Z,2.30
2023-04-17T19:49:26.688Z,2.55
2023-04-17T19:51:53.634Z,2.30
2023-04-17T19:54:20.425Z,2.10
2023-04-17T19:56:47.344Z,1.90
2023-04-17T19:59:14.569Z,2.10
2023-04-17T20:01:43.716Z,2.10
2023-04-17T20:04:11.068Z,2.10
2023-04-17T20:06:39.644Z,1.70
2023-04-17T20:09:06.910Z,2.05
2023-04-17T20:11:34.397Z,2.03
2023-04-17T20:14:01.178Z,1.85
2023-04-17T20:16:28.011Z,1.63
2023-04-17T20:18:56.819Z,1.95
2023-04-17T20:21:23.970Z,1.90
2023-04-17T20:23:50.945Z,1.70
2023-04-17T20:26:17.753Z,1.80
2023-04-17T20:28:44.720Z,2.00
2023-04-17T20:31:11.912Z,1.80
2023-04-17T20:33:38.753Z,2.17
2023-04-17T20:36:05.956Z,1.60
2023-04-17T20:38:32.918Z,1.90
2023-04-17T20:40:59.710Z,1.83
2023-04-17T20:43:26.718Z,1.65
2023-04-17T20:45:53.759Z,2.20
2023-04-17T20:48:20.866Z,1.80
2023-04-17T20:50:47.762Z,2.10
2023-04-17T20:53:14.653Z,1.92
2023-04-17T20:55:41.625Z,2.58
2023-04-17T20:58:08.332Z,2.50
2023-04-17T21:00:35.409Z,1.90
2023-04-17T21:03:02.599Z,1.75
2023-04-17T21:05:29.432Z,1.60
2023-04-17T21:07:57.906Z,1.70
2023-04-17T21:10:27.293Z,1.40
2023-04-17T21:12:54.252Z,1.35
2023-04-17T21:15:21.255Z,1.60
2023-04-17T21:17:48.254Z,1.50
2023-04-17T21:20:15.153Z,2.15
2023-04-17T21:22:41.964Z,1.60
2023-04-17T21:25:09.236Z,1.77
2023-04-17T21:27:35.916Z,1.90
2023-04-17T21:30:04.083Z,1.42
2023-04-17T21:32:33.514Z,1.75
2023-04-17T21:35:00.513Z,1.42
2023-04-17T21:37:27.261Z,1.90
2023-04-17T21:39:54.860Z,1.75
2023-04-17T21:42:21.762Z,1.55
2023-04-17T21:44:48.730Z,2.20
2023-04-17T21:47:16.608Z,1.88
2023-04-17T21:49:46.579Z,1.92
2023-04-17T21:52:14.260Z,1.98
2023-04-17T21:54:41.957Z,2.00
2023-04-17T21:57:08.949Z,1.73
2023-04-17T21:59:36.333Z,1.63
2023-04-17T22:02:04.435Z,2.00
2023-04-17T22:04:31.472Z,1.92
2023-04-17T22:06:58.331Z,1.90
2023-04-17T22:09:26.628Z,2.00
2023-04-17T22:11:55.616Z,1.60
2023-04-17T22:14:22.629Z,1.65
2023-04-17T22:16:49.628Z,1.70
2023-04-17T22:19:18.293Z,2.20
2023-04-17T22:21:45.901Z,2.22
2023-04-17T22:24:12.997Z,1.88
2023-04-17T22:26:40.081Z,1.90
2023-04-17T22:29:07.000Z,1.90
2023-04-17T22:31:34.243Z,1.80
2023-04-17T22:34:01.151Z,2.28
2023-04-17T22:36:27.978Z,1.98
2023-04-17T22:38:54.904Z,2.20
2023-04-17T22:41:22.171Z,1.63
2023-04-17T22:43:49.867Z,2.33
2023-04-17T22:46:17.049Z,2.03
2023-04-17T22:48:47.323Z,2.22
2023-04-17T22:51:15.350Z,2.25
2023-04-17T22:53:43.199Z,1.80
2023-04-17T22:56:12.876Z,2.10
2023-04-17T22:58:39.739Z,2.25
2023-04-17T23:01:06.820Z,1.95
2023-04-17T23:03:35.188Z,2.13
2023-04-17T23:06:02.089Z,2.03
2023-04-17T23:08:30.961Z,2.47
2023-04-17T23:11:03.525Z,2.35
2023-04-17T23:13:33.704Z,2.47
2023-04-17T23:16:00.599Z,2.55
2023-04-17T23:18:27.869Z,2.45
2023-04-17T23:20:54.827Z,2.38
2023-04-17T23:23:21.682Z,2.05
2023-04-17T23:25:48.805Z,2.40
2023-04-17T23:28:15.758Z,1.88
2023-04-17T23:30:42.654Z,2.88
2023-04-17T23:33:10.030Z,1.92
2023-04-17T23:35:37.048Z,2.40
2023-04-17T23:38:04.245Z,2.80
2023-04-17T23:40:32.732Z,2.30
2023-04-17T23:42:59.686Z,2.42
2023-04-17T23:45:26.505Z,2.33
2023-04-17T23:47:53.719Z,2.22
2023-04-17T23:50:20.811Z,2.28
2023-04-17T23:52:47.691Z,2.20
2023-04-17T23:55:14.347Z,2.20
2023-04-17T23:57:41.376Z,2.20
